KSBS Airport (Steamboat Springs/Bob Adams Field) Information

FAA: SBS - ICAO: KSBS

KSBS Airport Location

State Colorado
County Routt
City Steamboat Springs
KSBS Airport is 3 miles northwest of Steamboat Springs, CO.
Latitude 40-30-58.5000N
Longitude 106-51-58.7000W
Elevation 6,882ft

KSBS Airport METARs

METAR KSBS 180615Z AUTO 00000KT 10SM CLR 04/M02 A3008 RMK AO1 T00391022
Altimeter 30.08"
Temperature 3.9°C (39.0°F)
Wind 0° at 0KT
Clouds Skies are clear.
Visibility 10.0mi
Time observed: 2021-10-18T06:15:00Z

KSBS Airport Details

Status Operational
Activation January 1942
Ownership Public
Usage Public
Chart CHEYENNE
ATC on-site No
Beacon schedule sunset-sunrise
Beacon color clear green

KSBS Airport Contacts

Owner CITY OF STEAMBOAT SPRINGS
Owner address PO BOX 775088, STEAMBOAT SPRINGS, CO 80477
Owner phone (970) 879-9042
Manager LIONEL CARPENTER
Manager address 189 COMMANCHE PEAK RD, SOUTH FORK, CO 81154-9629
Manager phone 719-873-5699

KSBS Airport (Steamboat Springs/Bob Adams Field) Radio Frequencies

KSBS (Airport) Radio Frequencies

UNICOM 122.8
Common traffic advisory frequency (CTAF) 122.8